sensor_id;sensor_type;location;lat;lon;timestamp;pressure;altitude;pressure_sealevel;temperature;humidity
63285;BME280;49409;55.708;37.522;2023-03-19T00:01:40;100770.94;;;4.23;29.52
63285;BME280;49409;55.708;37.522;2023-03-19T00:04:05;100771.75;;;4.24;30.06
63285;BME280;49409;55.708;37.522;2023-03-19T00:06:30;100763.00;;;4.18;29.98
63285;BME280;49409;55.708;37.522;2023-03-19T00:08:56;100755.84;;;4.13;31.31
63285;BME280;49409;55.708;37.522;2023-03-19T00:11:21;100759.94;;;4.07;30.46
63285;BME280;49409;55.708;37.522;2023-03-19T00:13:47;100760.25;;;4.06;30.89
63285;BME280;49409;55.708;37.522;2023-03-19T00:16:12;100751.06;;;4.10;30.18
63285;BME280;49409;55.708;37.522;2023-03-19T00:18:37;100752.22;;;4.09;30.40
63285;BME280;49409;55.708;37.522;2023-03-19T00:21:03;100744.38;;;4.08;30.19
63285;BME280;49409;55.708;37.522;2023-03-19T00:23:28;100744.13;;;4.01;31.02
63285;BME280;49409;55.708;37.522;2023-03-19T00:25:53;100740.63;;;4.00;30.75
63285;BME280;49409;55.708;37.522;2023-03-19T00:28:19;100741.75;;;3.99;30.99
63285;BME280;49409;55.708;37.522;2023-03-19T00:30:44;100741.31;;;3.97;30.96
63285;BME280;49409;55.708;37.522;2023-03-19T00:33:10;100733.34;;;3.92;30.81
63285;BME280;49409;55.708;37.522;2023-03-19T00:35:35;100735.16;;;3.88;31.29
63285;BME280;49409;55.708;37.522;2023-03-19T00:38:03;100730.16;;;3.90;30.88
63285;BME280;49409;55.708;37.522;2023-03-19T00:40:28;100735.63;;;3.90;31.32
63285;BME280;49409;55.708;37.522;2023-03-19T00:42:54;100734.00;;;3.89;31.08
63285;BME280;49409;55.708;37.522;2023-03-19T00:45:19;100727.31;;;3.86;31.21
63285;BME280;49409;55.708;37.522;2023-03-19T00:47:45;100727.44;;;3.77;32.20
63285;BME280;49409;55.708;37.522;2023-03-19T00:50:11;100729.00;;;3.78;31.12
63285;BME280;49409;55.708;37.522;2023-03-19T00:52:36;100722.44;;;3.80;31.81
63285;BME280;49409;55.708;37.522;2023-03-19T00:55:01;100722.22;;;3.85;31.01
63285;BME280;49409;55.708;37.522;2023-03-19T00:57:27;100726.53;;;3.86;31.51
63285;BME280;49409;55.708;37.522;2023-03-19T00:59:52;100725.28;;;3.83;31.82
63285;BME280;49409;55.708;37.522;2023-03-19T01:02:17;100719.84;;;3.83;31.71
63285;BME280;49409;55.708;37.522;2023-03-19T01:04:43;100723.34;;;3.84;31.73
63285;BME280;49409;55.708;37.522;2023-03-19T01:07:08;100725.38;;;3.87;31.26
63285;BME280;49409;55.708;37.522;2023-03-19T01:09:34;100719.28;;;3.90;31.68
63285;BME280;49409;55.708;37.522;2023-03-19T01:12:00;100721.88;;;3.86;31.01
63285;BME280;49409;55.708;37.522;2023-03-19T01:14:28;100718.81;;;3.88;31.55
63285;BME280;49409;55.708;37.522;2023-03-19T01:16:54;100723.25;;;3.92;31.10
63285;BME280;49409;55.708;37.522;2023-03-19T01:19:19;100713.13;;;3.93;31.42
63285;BME280;49409;55.708;37.522;2023-03-19T01:21:45;100719.28;;;3.90;31.76
63285;BME280;49409;55.708;37.522;2023-03-19T01:24:11;100719.72;;;3.92;31.07
63285;BME280;49409;55.708;37.522;2023-03-19T01:26:36;100716.34;;;3.95;31.01
63285;BME280;49409;55.708;37.522;2023-03-19T01:29:02;100720.50;;;3.92;31.19
63285;BME280;49409;55.708;37.522;2023-03-19T01:31:28;100706.13;;;3.92;31.39
63285;BME280;49409;55.708;37.522;2023-03-19T01:33:53;100715.41;;;3.91;31.27
63285;BME280;49409;55.708;37.522;2023-03-19T01:36:18;100716.66;;;3.81;31.76
63285;BME280;49409;55.708;37.522;2023-03-19T01:38:44;100710.41;;;3.81;31.64
63285;BME280;49409;55.708;37.522;2023-03-19T01:41:09;100713.13;;;3.81;31.56
63285;BME280;49409;55.708;37.522;2023-03-19T01:43:34;100713.59;;;3.83;31.89
63285;BME280;49409;55.708;37.522;2023-03-19T01:46:03;100701.91;;;3.82;30.95
63285;BME280;49409;55.708;37.522;2023-03-19T01:50:58;100709.94;;;3.78;31.50
63285;BME280;49409;55.708;37.522;2023-03-19T01:53:27;100700.88;;;3.74;31.77
63285;BME280;49409;55.708;37.522;2023-03-19T01:55:55;100700.63;;;3.67;32.12
63285;BME280;49409;55.708;37.522;2023-03-19T01:58:22;100701.31;;;3.64;31.65
63285;BME280;49409;55.708;37.522;2023-03-19T02:00:47;100696.06;;;3.59;31.35
63285;BME280;49409;55.708;37.522;2023-03-19T02:03:13;100692.22;;;3.60;32.03
63285;BME280;49409;55.708;37.522;2023-03-19T02:05:38;100688.13;;;3.54;32.48
63285;BME280;49409;55.708;37.522;2023-03-19T02:08:06;100686.53;;;3.53;31.73
63285;BME280;49409;55.708;37.522;2023-03-19T02:10:32;100690.84;;;3.54;31.81
63285;BME280;49409;55.708;37.522;2023-03-19T02:12:58;100681.41;;;3.51;32.22
63285;BME280;49409;55.708;37.522;2023-03-19T02:15:23;100678.38;;;3.53;32.36
63285;BME280;49409;55.708;37.522;2023-03-19T02:17:49;100685.41;;;3.54;31.89
63285;BME280;49409;55.708;37.522;2023-03-19T02:28:11;100670.84;;;3.37;31.42
63285;BME280;49409;55.708;37.522;2023-03-19T02:30:40;100673.34;;;3.30;32.72
63285;BME280;49409;55.708;37.522;2023-03-19T02:33:08;100674.00;;;3.27;32.16
63285;BME280;49409;55.708;37.522;2023-03-19T02:35:33;100671.41;;;3.31;32.02
63285;BME280;49409;55.708;37.522;2023-03-19T02:38:00;100662.78;;;3.29;31.74
63285;BME280;49409;55.708;37.522;2023-03-19T02:40:33;100672.63;;;3.21;32.54
63285;BME280;49409;55.708;37.522;2023-03-19T02:43:01;100673.31;;;3.18;32.69
63285;BME280;49409;55.708;37.522;2023-03-19T02:45:29;100667.84;;;3.18;32.60
63285;BME280;49409;55.708;37.522;2023-03-19T02:47:55;100666.38;;;3.21;32.04
63285;BME280;49409;55.708;37.522;2023-03-19T02:50:21;100667.03;;;3.17;32.73
63285;BME280;49409;55.708;37.522;2023-03-19T02:52:46;100660.69;;;3.13;32.97
63285;BME280;49409;55.708;37.522;2023-03-19T02:55:11;100665.19;;;3.09;33.23
63285;BME280;49409;55.708;37.522;2023-03-19T02:57:37;100659.91;;;3.13;32.40
63285;BME280;49409;55.708;37.522;2023-03-19T03:00:03;100658.97;;;3.09;33.22
63285;BME280;49409;55.708;37.522;2023-03-19T03:02:29;100657.38;;;3.08;32.65
63285;BME280;49409;55.708;37.522;2023-03-19T03:04:55;100655.78;;;3.07;32.85
63285;BME280;49409;55.708;37.522;2023-03-19T03:07:20;100655.78;;;3.07;32.34
63285;BME280;49409;55.708;37.522;2023-03-19T03:09:46;100651.47;;;3.06;32.65
63285;BME280;49409;55.708;37.522;2023-03-19T03:12:11;100651.00;;;3.04;32.49
63285;BME280;49409;55.708;37.522;2023-03-19T03:14:37;100651.69;;;3.01;33.04
63285;BME280;49409;55.708;37.522;2023-03-19T03:17:02;100645.44;;;3.00;33.01
63285;BME280;49409;55.708;37.522;2023-03-19T03:19:27;100644.66;;;3.00;32.24
63285;BME280;49409;55.708;37.522;2023-03-19T03:21:53;100647.94;;;2.93;32.61
63285;BME280;49409;55.708;37.522;2023-03-19T03:24:18;100641.25;;;2.90;32.62
63285;BME280;49409;55.708;37.522;2023-03-19T03:26:43;100638.72;;;2.85;33.28
63285;BME280;49409;55.708;37.522;2023-03-19T03:29:09;100644.34;;;2.80;33.23
63285;BME280;49409;55.708;37.522;2023-03-19T03:31:35;100642.31;;;2.77;33.23
63285;BME280;49409;55.708;37.522;2023-03-19T03:34:00;100644.25;;;2.76;32.61
63285;BME280;49409;55.708;37.522;2023-03-19T03:36:26;100642.16;;;2.73;33.20
63285;BME280;49409;55.708;37.522;2023-03-19T03:38:51;100643.75;;;2.74;32.69
63285;BME280;49409;55.708;37.522;2023-03-19T03:41:17;100643.66;;;2.71;33.53
63285;BME280;49409;55.708;37.522;2023-03-19T03:43:43;100653.38;;;2.72;33.19
63285;BME280;49409;55.708;37.522;2023-03-19T03:46:08;100649.53;;;2.73;33.30
63285;BME280;49409;55.708;37.522;2023-03-19T03:48:34;100640.25;;;2.74;32.85
63285;BME280;49409;55.708;37.522;2023-03-19T03:51:00;100644.56;;;2.75;33.04
63285;BME280;49409;55.708;37.522;2023-03-19T03:53:25;100637.53;;;2.74;33.16
63285;BME280;49409;55.708;37.522;2023-03-19T03:55:50;100637.53;;;2.74;33.04
63285;BME280;49409;55.708;37.522;2023-03-19T03:58:16;100632.09;;;2.74;33.33
63285;BME280;49409;55.708;37.522;2023-03-19T04:00:41;100634.81;;;2.74;33.27
63285;BME280;49409;55.708;37.522;2023-03-19T04:03:06;100639.91;;;2.75;33.18
63285;BME280;49409;55.708;37.522;2023-03-19T04:05:32;100635.94;;;2.73;32.97
63285;BME280;49409;55.708;37.522;2023-03-19T04:07:58;100638.44;;;2.78;32.92
63285;BME280;49409;55.708;37.522;2023-03-19T04:10:23;100627.38;;;2.83;32.83
63285;BME280;49409;55.708;37.522;2023-03-19T04:12:49;100629.41;;;2.86;33.03
63285;BME280;49409;55.708;37.522;2023-03-19T04:15:14;100629.41;;;2.86;33.43
63285;BME280;49409;55.708;37.522;2023-03-19T04:17:40;100625.38;;;2.92;33.07
63285;BME280;49409;55.708;37.522;2023-03-19T04:20:06;100627.22;;;3.01;33.14
63285;BME280;49409;55.708;37.522;2023-03-19T04:22:31;100627.91;;;3.10;32.82
63285;BME280;49409;55.708;37.522;2023-03-19T04:24:57;100621.16;;;3.16;33.58
63285;BME280;49409;55.708;37.522;2023-03-19T04:27:22;100617.31;;;3.29;33.55
63285;BME280;49409;55.708;37.522;2023-03-19T04:29:48;100609.31;;;3.45;32.73
63285;BME280;49409;55.708;37.522;2023-03-19T04:32:13;100616.47;;;3.62;33.08
63285;BME280;49409;55.708;37.522;2023-03-19T04:34:39;100612.28;;;3.77;32.99
63285;BME280;49409;55.708;37.522;2023-03-19T04:37:05;100609.00;;;3.96;32.70
63285;BME280;49409;55.708;37.522;2023-03-19T04:39:31;100616.91;;;4.13;33.25
63285;BME280;49409;55.708;37.522;2023-03-19T04:41:57;100613.13;;;4.30;33.35
63285;BME280;49409;55.708;37.522;2023-03-19T04:44:22;100615.59;;;4.48;32.65
63285;BME280;49409;55.708;37.522;2023-03-19T04:46:48;100614.97;;;4.67;32.78
63285;BME280;49409;55.708;37.522;2023-03-19T04:49:13;100606.13;;;4.86;33.05
63285;BME280;49409;55.708;37.522;2023-03-19T04:51:39;100612.78;;;5.01;32.57
63285;BME280;49409;55.708;37.522;2023-03-19T04:54:06;100606.47;;;5.12;32.67
63285;BME280;49409;55.708;37.522;2023-03-19T04:56:31;100607.03;;;5.18;32.37
63285;BME280;49409;55.708;37.522;2023-03-19T04:58:56;100604.50;;;5.25;33.34
63285;BME280;49409;55.708;37.522;2023-03-19T05:01:22;100610.03;;;5.29;32.92
63285;BME280;49409;55.708;37.522;2023-03-19T05:03:47;100597.34;;;5.36;32.71
63285;BME280;49409;55.708;37.522;2023-03-19T05:06:13;100603.00;;;5.44;32.71
63285;BME280;49409;55.708;37.522;2023-03-19T05:08:38;100599.56;;;5.47;33.03
63285;BME280;49409;55.708;37.522;2023-03-19T05:11:03;100598.41;;;5.48;32.33
63285;BME280;49409;55.708;37.522;2023-03-19T05:13:29;100600.97;;;5.41;33.07
63285;BME280;49409;55.708;37.522;2023-03-19T05:15:54;100601.41;;;5.43;32.79
63285;BME280;49409;55.708;37.522;2023-03-19T05:18:21;100592.78;;;5.41;33.06
63285;BME280;49409;55.708;37.522;2023-03-19T05:20:46;100595.06;;;5.39;32.57
63285;BME280;49409;55.708;37.522;2023-03-19T05:23:12;100594.81;;;5.44;32.81
63285;BME280;49409;55.708;37.522;2023-03-19T05:25:37;100591.75;;;5.45;32.51
63285;BME280;49409;55.708;37.522;2023-03-19T05:28:03;100588.81;;;5.38;32.55
63285;BME280;49409;55.708;37.522;2023-03-19T05:30:29;100590.03;;;5.41;33.16
63285;BME280;49409;55.708;37.522;2023-03-19T05:32:55;100588.91;;;5.42;32.90
63285;BME280;49409;55.708;37.522;2023-03-19T05:35:21;100584.16;;;5.39;33.27
63285;BME280;49409;55.708;37.522;2023-03-19T05:37:46;100581.59;;;5.46;33.31
63285;BME280;49409;55.708;37.522;2023-03-19T05:40:12;100570.16;;;5.56;33.10
63285;BME280;49409;55.708;37.522;2023-03-19T05:42:37;100571.47;;;5.62;33.14
63285;BME280;49409;55.708;37.522;2023-03-19T05:45:03;100574.81;;;5.71;33.11
63285;BME280;49409;55.708;37.522;2023-03-19T05:47:29;100564.56;;;5.84;32.38
63285;BME280;49409;55.708;37.522;2023-03-19T05:49:54;100571.53;;;5.98;32.80
63285;BME280;49409;55.708;37.522;2023-03-19T05:52:20;100571.34;;;6.06;32.54
63285;BME280;49409;55.708;37.522;2023-03-19T05:54:45;100562.59;;;6.17;32.35
63285;BME280;49409;55.708;37.522;2023-03-19T05:57:13;100554.25;;;6.29;32.03
63285;BME280;49409;55.708;37.522;2023-03-19T05:59:39;100551.38;;;6.41;32.15
63285;BME280;49409;55.708;37.522;2023-03-19T06:02:04;100551.59;;;6.52;32.42
63285;BME280;49409;55.708;37.522;2023-03-19T06:04:29;100554.91;;;6.61;32.63
63285;BME280;49409;55.708;37.522;2023-03-19T06:06:55;100542.88;;;6.66;32.75
63285;BME280;49409;55.708;37.522;2023-03-19T06:09:20;100549.72;;;6.75;32.27
63285;BME280;49409;55.708;37.522;2023-03-19T06:11:46;100552.22;;;6.84;32.50
63285;BME280;49409;55.708;37.522;2023-03-19T06:14:11;100536.72;;;6.92;32.46
63285;BME280;49409;55.708;37.522;2023-03-19T06:16:36;100542.38;;;7.03;32.31
63285;BME280;49409;55.708;37.522;2023-03-19T06:19:02;100524.56;;;7.12;32.41
63285;BME280;49409;55.708;37.522;2023-03-19T06:21:28;100532.56;;;7.21;32.47
63285;BME280;49409;55.708;37.522;2023-03-19T06:23:57;100529.56;;;7.30;32.49
63285;BME280;49409;55.708;37.522;2023-03-19T06:26:23;100525.41;;;7.40;32.19
63285;BME280;49409;55.708;37.522;2023-03-19T06:28:49;100520.69;;;7.37;32.23
63285;BME280;49409;55.708;37.522;2023-03-19T06:31:14;100523.34;;;7.33;32.46
63285;BME280;49409;55.708;37.522;2023-03-19T06:33:40;100520.78;;;7.44;32.55
63285;BME280;49409;55.708;37.522;2023-03-19T06:36:06;100522.16;;;7.57;32.51
63285;BME280;49409;55.708;37.522;2023-03-19T06:38:31;100518.38;;;7.65;32.41
63285;BME280;49409;55.708;37.522;2023-03-19T06:40:56;100521.53;;;7.67;32.29
63285;BME280;49409;55.708;37.522;2023-03-19T06:43:22;100516.84;;;7.68;32.41
63285;BME280;49409;55.708;37.522;2023-03-19T06:45:47;100522.47;;;7.79;32.42
63285;BME280;49409;55.708;37.522;2023-03-19T06:48:13;100506.81;;;7.79;32.16
63285;BME280;49409;55.708;37.522;2023-03-19T06:50:38;100508.31;;;7.73;32.33
63285;BME280;49409;55.708;37.522;2023-03-19T06:53:04;100506.81;;;7.79;32.13
63285;BME280;49409;55.708;37.522;2023-03-19T06:55:29;100508.56;;;7.91;32.00
63285;BME280;49409;55.708;37.522;2023-03-19T06:57:55;100503.19;;;7.98;31.78
63285;BME280;49409;55.708;37.522;2023-03-19T07:00:20;100508.97;;;7.93;31.82
63285;BME280;49409;55.708;37.522;2023-03-19T07:02:46;100510.16;;;7.92;31.97
63285;BME280;49409;55.708;37.522;2023-03-19T07:05:11;100507.50;;;7.99;31.91
63285;BME280;49409;55.708;37.522;2023-03-19T07:07:37;100503.69;;;8.07;31.88
63285;BME280;49409;55.708;37.522;2023-03-19T07:10:02;100501.44;;;8.17;31.79
63285;BME280;49409;55.708;37.522;2023-03-19T07:12:28;100500.38;;;8.25;31.72
63285;BME280;49409;55.708;37.522;2023-03-19T07:14:53;100493.44;;;8.34;31.49
63285;BME280;49409;55.708;37.522;2023-03-19T07:17:20;100496.59;;;8.37;31.55
63285;BME280;49409;55.708;37.522;2023-03-19T07:19:46;100497.38;;;8.37;31.74
63285;BME280;49409;55.708;37.522;2023-03-19T07:22:11;100492.78;;;8.41;31.60
63285;BME280;49409;55.708;37.522;2023-03-19T07:24:37;100485.66;;;8.40;31.73
63285;BME280;49409;55.708;37.522;2023-03-19T07:27:02;100480.31;;;8.47;31.37
63285;BME280;49409;55.708;37.522;2023-03-19T07:29:27;100480.31;;;8.51;31.38
63285;BME280;49409;55.708;37.522;2023-03-19T07:31:53;100479.50;;;8.47;31.17
63285;BME280;49409;55.708;37.522;2023-03-19T07:34:18;100490.34;;;8.36;30.81
63285;BME280;49409;55.708;37.522;2023-03-19T07:36:43;100481.47;;;8.16;30.75
63285;BME280;49409;55.708;37.522;2023-03-19T07:39:09;100482.25;;;8.17;30.50
63285;BME280;49409;55.708;37.522;2023-03-19T07:41:35;100476.88;;;8.24;31.49
63285;BME280;49409;55.708;37.522;2023-03-19T07:44:00;100478.59;;;8.36;31.34
63285;BME280;49409;55.708;37.522;2023-03-19T07:46:26;100488.53;;;8.47;31.38
63285;BME280;49409;55.708;37.522;2023-03-19T07:48:52;100478.13;;;8.64;31.29
63285;BME280;49409;55.708;37.522;2023-03-19T07:51:17;100473.13;;;8.77;31.25
63285;BME280;49409;55.708;37.522;2023-03-19T07:53:43;100473.66;;;8.89;30.96
63285;BME280;49409;55.708;37.522;2023-03-19T07:56:08;100473.00;;;9.03;30.80
63285;BME280;49409;55.708;37.522;2023-03-19T07:58:34;100466.03;;;9.13;30.97
63285;BME280;49409;55.708;37.522;2023-03-19T08:00:59;100461.72;;;9.16;31.07
63285;BME280;49409;55.708;37.522;2023-03-19T08:03:24;100462.91;;;9.18;31.05
63285;BME280;49409;55.708;37.522;2023-03-19T08:05:50;100460.22;;;9.25;30.66
63285;BME280;49409;55.708;37.522;2023-03-19T08:08:16;100453.22;;;9.31;30.52
63285;BME280;49409;55.708;37.522;2023-03-19T08:10:42;100450.94;;;9.41;31.18
63285;BME280;49409;55.708;37.522;2023-03-19T08:13:07;100446.63;;;9.47;30.78
63285;BME280;49409;55.708;37.522;2023-03-19T08:15:32;100443.53;;;9.52;31.12
63285;BME280;49409;55.708;37.522;2023-03-19T08:17:58;100446.72;;;9.61;30.86
63285;BME280;49409;55.708;37.522;2023-03-19T08:20:23;100444.75;;;9.58;30.76
63285;BME280;49409;55.708;37.522;2023-03-19T08:22:49;100436.50;;;9.58;30.76
63285;BME280;49409;55.708;37.522;2023-03-19T08:25:15;100432.56;;;9.52;30.72
63285;BME280;49409;55.708;37.522;2023-03-19T08:27:40;100427.06;;;9.56;30.47
63285;BME280;49409;55.708;37.522;2023-03-19T08:30:06;100428.66;;;9.57;30.47
63285;BME280;49409;55.708;37.522;2023-03-19T08:32:32;100425.47;;;9.51;30.31
63285;BME280;49409;55.708;37.522;2023-03-19T08:34:57;100419.97;;;9.51;30.09
63285;BME280;49409;55.708;37.522;2023-03-19T08:37:23;100423.13;;;9.53;29.91
63285;BME280;49409;55.708;37.522;2023-03-19T08:39:49;100418.38;;;9.43;30.45
63285;BME280;49409;55.708;37.522;2023-03-19T08:42:14;100410.44;;;9.30;30.56
63285;BME280;49409;55.708;37.522;2023-03-19T08:44:40;100409.66;;;9.33;30.80
63285;BME280;49409;55.708;37.522;2023-03-19T08:47:05;100386.06;;;9.25;30.69
63285;BME280;49409;55.708;37.522;2023-03-19T08:49:30;100404.63;;;9.43;30.64
63285;BME280;49409;55.708;37.522;2023-03-19T08:51:56;100385.41;;;9.43;30.34
63285;BME280;49409;55.708;37.522;2023-03-19T08:54:21;100393.22;;;9.37;30.30
63285;BME280;49409;55.708;37.522;2023-03-19T08:56:47;100390.03;;;9.31;30.63
63285;BME280;49409;55.708;37.522;2023-03-19T08:59:12;100375.94;;;9.37;30.65
63285;BME280;49409;55.708;37.522;2023-03-19T09:01:37;100366.56;;;9.45;30.61
63285;BME280;49409;55.708;37.522;2023-03-19T09:04:03;100370.13;;;9.49;30.40
63285;BME280;49409;55.708;37.522;2023-03-19T09:06:29;100372.50;;;9.50;30.56
63285;BME280;49409;55.708;37.522;2023-03-19T09:08:54;100366.53;;;9.41;30.72
63285;BME280;49409;55.708;37.522;2023-03-19T09:11:20;100362.66;;;9.46;30.92
63285;BME280;49409;55.708;37.522;2023-03-19T09:13:46;100348.56;;;9.55;30.85
63285;BME280;49409;55.708;37.522;2023-03-19T09:16:11;100352.53;;;9.64;30.29
63285;BME280;49409;55.708;37.522;2023-03-19T09:18:36;100341.94;;;9.66;30.88
63285;BME280;49409;55.708;37.522;2023-03-19T09:21:02;100344.72;;;9.70;30.85
63285;BME280;49409;55.708;37.522;2023-03-19T09:23:27;100343.13;;;9.72;30.56
63285;BME280;49409;55.708;37.522;2023-03-19T09:25:53;100344.31;;;9.71;30.92
63285;BME280;49409;55.708;37.522;2023-03-19T09:28:18;100347.06;;;9.75;30.67
63285;BME280;49409;55.708;37.522;2023-03-19T09:30:47;100342.75;;;9.70;30.35
63285;BME280;49409;55.708;37.522;2023-03-19T09:33:13;100343.13;;;9.69;30.98
63285;BME280;49409;55.708;37.522;2023-03-19T09:35:39;100342.31;;;9.65;30.69
63285;BME280;49409;55.708;37.522;2023-03-19T09:38:04;100344.25;;;9.57;30.70
63285;BME280;49409;55.708;37.522;2023-03-19T09:40:50;100339.94;;;9.56;31.18
63285;BME280;49409;55.708;37.522;2023-03-19T09:43:34;100339.91;;;9.52;31.07
63285;BME280;49409;55.708;37.522;2023-03-19T09:46:04;100339.16;;;9.59;31.00
63285;BME280;49409;55.708;37.522;2023-03-19T09:48:33;100338.41;;;9.62;31.32
63285;BME280;49409;55.708;37.522;2023-03-19T09:51:00;100333.31;;;9.68;30.93
63285;BME280;49409;55.708;37.522;2023-03-19T09:53:35;100336.06;;;9.68;31.11
63285;BME280;49409;55.708;37.522;2023-03-19T09:56:04;100333.69;;;9.66;31.05
63285;BME280;49409;55.708;37.522;2023-03-19T09:58:32;100330.56;;;9.64;31.15
63285;BME280;49409;55.708;37.522;2023-03-19T10:00:59;100330.16;;;9.62;31.09
63285;BME280;49409;55.708;37.522;2023-03-19T10:03:35;100329.75;;;9.67;31.06
63285;BME280;49409;55.708;37.522;2023-03-19T10:16:30;100311.75;;;9.81;31.23
63285;BME280;49409;55.708;37.522;2023-03-19T10:18:59;100307.84;;;9.85;30.98
63285;BME280;49409;55.708;37.522;2023-03-19T10:24:05;100305.13;;;9.96;31.34
63285;BME280;49409;55.708;37.522;2023-03-19T10:26:35;100293.75;;;9.98;30.90
63285;BME280;49409;55.708;37.522;2023-03-19T10:29:18;100296.09;;;9.99;31.31
63285;BME280;49409;55.708;37.522;2023-03-19T10:36:47;100294.16;;;10.14;31.31
63285;BME280;49409;55.708;37.522;2023-03-19T10:39:14;100300.44;;;10.15;31.23
63285;BME280;49409;55.708;37.522;2023-03-19T10:41:49;100295.34;;;10.13;31.39
63285;BME280;49409;55.708;37.522;2023-03-19T10:44:26;100287.09;;;10.13;31.05
63285;BME280;49409;55.708;37.522;2023-03-19T10:46:55;100291.41;;;10.18;31.12
63285;BME280;49409;55.708;37.522;2023-03-19T10:49:21;100283.94;;;10.22;31.16
63285;BME280;49409;55.708;37.522;2023-03-19T10:51:47;100263.91;;;10.21;31.30
63285;BME280;49409;55.708;37.522;2023-03-19T10:54:23;100270.97;;;10.15;31.37
63285;BME280;49409;55.708;37.522;2023-03-19T10:56:50;100274.13;;;10.13;31.38
63285;BME280;49409;55.708;37.522;2023-03-19T10:59:39;100277.25;;;10.08;31.41
63285;BME280;49409;55.708;37.522;2023-03-19T11:02:23;100269.78;;;10.09;31.51
63285;BME280;49409;55.708;37.522;2023-03-19T11:05:07;100267.03;;;10.12;31.49
63285;BME280;49409;55.708;37.522;2023-03-19T11:07:43;100267.44;;;10.15;31.39
63285;BME280;49409;55.708;37.522;2023-03-19T11:10:15;100257.63;;;10.17;31.65
63285;BME280;49409;55.708;37.522;2023-03-19T11:12:41;100259.56;;;10.17;31.71
63285;BME280;49409;55.708;37.522;2023-03-19T11:15:19;100256.81;;;10.17;31.15
63285;BME280;49409;55.708;37.522;2023-03-19T11:17:46;100256.44;;;10.25;31.59
63285;BME280;49409;55.708;37.522;2023-03-19T11:22:44;100248.97;;;10.26;31.68
63285;BME280;49409;55.708;37.522;2023-03-19T11:25:14;100243.06;;;10.24;31.48
63285;BME280;49409;55.708;37.522;2023-03-19T11:27:43;100243.47;;;10.26;31.85
63285;BME280;49409;55.708;37.522;2023-03-19T11:30:28;100241.91;;;10.25;31.37
63285;BME280;49409;55.708;37.522;2023-03-19T11:36:32;100241.91;;;10.18;31.69
63285;BME280;49409;55.708;37.522;2023-03-19T11:38:40;100231.31;;;10.27;31.82
63285;BME280;49409;55.708;37.522;2023-03-19T11:41:19;100232.13;;;10.31;31.45
63285;BME280;49409;55.708;37.522;2023-03-19T11:43:49;100229.75;;;10.33;31.57
63285;BME280;49409;55.708;37.522;2023-03-19T11:51:50;100227.78;;;10.30;31.96
63285;BME280;49409;55.708;37.522;2023-03-19T11:57:03;100228.16;;;10.32;31.63
63285;BME280;49409;55.708;37.522;2023-03-19T12:02:06;100215.19;;;10.25;31.92
63285;BME280;49409;55.708;37.522;2023-03-19T12:12:47;100195.53;;;10.12;32.08
63285;BME280;49409;55.708;37.522;2023-03-19T12:17:50;100197.50;;;10.08;32.37
63285;BME280;49409;55.708;37.522;2023-03-19T12:20:20;100190.84;;;10.09;32.36
63285;BME280;49409;55.708;37.522;2023-03-19T12:23:04;100190.84;;;10.09;32.30
63285;BME280;49409;55.708;37.522;2023-03-19T12:28:06;100184.53;;;10.16;32.47
63285;BME280;49409;55.708;37.522;2023-03-19T12:35:45;100162.53;;;10.12;32.29
63285;BME280;49409;55.708;37.522;2023-03-19T12:38:45;100160.59;;;10.13;32.25
63285;BME280;49409;55.708;37.522;2023-03-19T12:43:36;100155.47;;;10.04;32.23
63285;BME280;49409;55.708;37.522;2023-03-19T12:46:10;100145.28;;;10.01;32.37
63285;BME280;49409;55.708;37.522;2023-03-19T12:48:38;100153.13;;;9.99;32.18
63285;BME280;49409;55.708;37.522;2023-03-19T12:51:07;100151.56;;;9.98;32.48
63285;BME280;49409;55.708;37.522;2023-03-19T12:56:05;100135.06;;;10.02;32.04
63285;BME280;49409;55.708;37.522;2023-03-19T12:58:38;100129.94;;;10.00;32.32
63285;BME280;49409;55.708;37.522;2023-03-19T13:03:53;100135.06;;;9.98;32.41
63285;BME280;49409;55.708;37.522;2023-03-19T13:06:26;100128.78;;;9.90;32.02
63285;BME280;49409;55.708;37.522;2023-03-19T13:11:33;100119.34;;;9.88;32.34
63285;BME280;49409;55.708;37.522;2023-03-19T13:16:31;100118.59;;;9.87;32.40
63285;BME280;49409;55.708;37.522;2023-03-19T13:21:42;100113.88;;;9.88;32.00
63285;BME280;49409;55.708;37.522;2023-03-19T13:26:42;100116.22;;;9.89;32.20
63285;BME280;49409;55.708;37.522;2023-03-19T13:29:19;100113.06;;;9.91;32.10
63285;BME280;49409;55.708;37.522;2023-03-19T13:31:45;100110.34;;;9.87;32.30
63285;BME280;49409;55.708;37.522;2023-03-19T13:34:24;100112.28;;;9.87;32.12
63285;BME280;49409;55.708;37.522;2023-03-19T13:36:52;100106.00;;;9.86;32.17
63285;BME280;49409;55.708;37.522;2023-03-19T13:39:19;100102.88;;;9.84;32.22
63285;BME280;49409;55.708;37.522;2023-03-19T13:46:48;100089.91;;;9.92;32.35
63285;BME280;49409;55.708;37.522;2023-03-19T13:49:26;100090.28;;;9.94;32.23
63285;BME280;49409;55.708;37.522;2023-03-19T13:51:53;100084.00;;;9.90;32.35
63285;BME280;49409;55.708;37.522;2023-03-19T13:54:19;100083.22;;;9.93;31.98
63285;BME280;49409;55.708;37.522;2023-03-19T13:59:23;100084.00;;;9.93;32.33
63285;BME280;49409;55.708;37.522;2023-03-19T14:01:50;100074.19;;;9.96;32.05
63285;BME280;49409;55.708;37.522;2023-03-19T14:06:45;100067.50;;;9.97;32.25
63285;BME280;49409;55.708;37.522;2023-03-19T14:09:28;100064.34;;;9.99;32.21
63285;BME280;49409;55.708;37.522;2023-03-19T14:11:54;100063.97;;;9.93;31.84
63285;BME280;49409;55.708;37.522;2023-03-19T14:14:32;100068.69;;;9.89;32.09
63285;BME280;49409;55.708;37.522;2023-03-19T14:16:58;100057.31;;;9.87;32.06
63285;BME280;49409;55.708;37.522;2023-03-19T14:19:24;100063.59;;;9.84;32.53